createdAt,value
2023-02-05T00:00:54.460Z,8.13
2023-02-05T00:03:42.966Z,8.95
2023-02-05T00:06:33.045Z,7.93
2023-02-05T00:09:21.019Z,7.47
2023-02-05T00:12:08.893Z,6.97
2023-02-05T00:14:56.824Z,7.25
2023-02-05T00:17:44.938Z,7.22
2023-02-05T00:20:32.724Z,6.68
2023-02-05T00:23:20.710Z,6.43
2023-02-05T00:26:09.220Z,6.95
2023-02-05T00:28:57.280Z,7.13
2023-02-05T00:31:45.060Z,7.18
2023-02-05T00:34:33.173Z,6.72
2023-02-05T00:37:20.955Z,7.10
2023-02-05T00:40:09.203Z,7.50
2023-02-05T00:42:57.127Z,7.35
2023-02-05T00:45:45.063Z,6.82
2023-02-05T00:48:33.015Z,6.40
2023-02-05T00:51:21.604Z,6.50
2023-02-05T00:54:09.572Z,7.38
2023-02-05T00:56:57.368Z,7.40
2023-02-05T00:59:48.405Z,7.75
2023-02-05T01:02:36.194Z,6.55
2023-02-05T01:05:23.906Z,7.78
2023-02-05T01:08:13.144Z,7.70
2023-02-05T01:11:01.436Z,8.15
2023-02-05T01:13:49.289Z,8.57
2023-02-05T01:16:37.072Z,7.70
2023-02-05T01:19:24.859Z,8.15
2023-02-05T01:22:13.229Z,7.65
2023-02-05T01:25:01.327Z,8.85
2023-02-05T01:27:49.131Z,7.32
2023-02-05T01:30:39.614Z,7.45
2023-02-05T01:33:27.429Z,7.78
2023-02-05T01:36:15.331Z,8.27
2023-02-05T01:39:03.106Z,7.90
2023-02-05T01:41:50.944Z,7.82
2023-02-05T01:44:39.022Z,7.30
2023-02-05T01:47:26.761Z,7.32
2023-02-05T01:50:22.817Z,7.65
2023-02-05T01:53:15.130Z,7.85
2023-02-05T01:56:11.667Z,8.73
2023-02-05T01:59:07.514Z,8.20
2023-02-05T02:01:56.913Z,8.85
2023-02-05T02:04:59.060Z,8.20
2023-02-05T02:07:47.174Z,9.48
2023-02-05T02:10:35.660Z,8.90
2023-02-05T02:13:25.419Z,9.05
2023-02-05T02:16:13.480Z,9.38
2023-02-05T02:19:02.657Z,10.93
2023-02-05T02:22:21.835Z,9.07
2023-02-05T02:25:15.388Z,9.48
2023-02-05T02:28:31.084Z,9.07
2023-02-05T02:31:51.312Z,9.77
2023-02-05T02:34:55.937Z,8.65
2023-02-05T02:37:56.882Z,8.52
2023-02-05T02:40:52.288Z,9.20
2023-02-05T02:43:46.271Z,9.30
2023-02-05T02:49:36.491Z,8.75
2023-02-05T02:52:26.700Z,8.98
2023-02-05T02:55:17.604Z,9.00
2023-02-05T02:58:08.837Z,9.68
2023-02-05T03:00:58.195Z,9.60
2023-02-05T03:03:58.754Z,9.05
2023-02-05T03:06:51.087Z,8.77
2023-02-05T03:10:11.896Z,8.77
2023-02-05T03:12:59.831Z,9.77
2023-02-05T03:15:48.317Z,9.27
2023-02-05T03:18:37.621Z,9.88
2023-02-05T03:21:33.571Z,9.70
2023-02-05T03:24:21.840Z,9.68
2023-02-05T03:27:10.246Z,9.80
2023-02-05T03:29:58.201Z,9.95
2023-02-05T03:33:07.456Z,10.25
2023-02-05T03:36:17.948Z,9.68
2023-02-05T03:39:27.659Z,10.02
2023-02-05T03:42:32.037Z,10.88
2023-02-05T03:45:38.652Z,10.50
2023-02-05T03:48:52.644Z,10.25
2023-02-05T03:52:00.773Z,11.02
2023-02-05T03:54:55.891Z,9.93
2023-02-05T03:57:52.344Z,10.23
2023-02-05T04:00:40.871Z,10.40
2023-02-05T04:03:28.630Z,10.20
2023-02-05T04:06:16.336Z,10.50
2023-02-05T04:09:04.466Z,10.68
2023-02-05T04:11:52.006Z,11.02
2023-02-05T04:14:39.759Z,11.25
2023-02-05T04:17:27.546Z,10.65
2023-02-05T04:20:15.495Z,11.05
2023-02-05T04:23:04.479Z,10.48
2023-02-05T04:25:56.264Z,10.68
2023-02-05T04:28:44.079Z,10.40
2023-02-05T04:31:32.061Z,10.80
2023-02-05T04:34:19.872Z,10.90
2023-02-05T04:37:07.523Z,11.18
2023-02-05T04:39:55.216Z,10.05
2023-02-05T04:42:43.317Z,10.40
2023-02-05T04:45:33.587Z,10.10
2023-02-05T04:48:21.722Z,11.35
2023-02-05T04:51:11.169Z,10.32
2023-02-05T04:54:00.936Z,10.52
2023-02-05T04:56:48.925Z,10.35
2023-02-05T04:59:36.999Z,10.73
2023-02-05T05:02:25.095Z,10.10
2023-02-05T05:05:12.901Z,10.52
2023-02-05T05:08:01.904Z,9.45
2023-02-05T05:10:49.578Z,10.60
2023-02-05T05:13:38.198Z,11.02
2023-02-05T05:16:25.894Z,11.02
2023-02-05T05:19:13.446Z,11.02
2023-02-05T05:22:01.043Z,12.70
2023-02-05T05:24:49.125Z,11.57
2023-02-05T05:27:36.739Z,10.68
2023-02-05T05:30:24.564Z,10.25
2023-02-05T05:33:12.831Z,10.45
2023-02-05T05:36:00.844Z,11.77
2023-02-05T05:38:48.951Z,10.38
2023-02-05T05:41:55.063Z,11.57
2023-02-05T05:44:43.520Z,12.45
2023-02-05T05:47:31.795Z,12.00
2023-02-05T05:50:19.674Z,12.13
2023-02-05T05:53:07.240Z,12.23
2023-02-05T05:55:55.245Z,13.55
2023-02-05T05:58:43.053Z,12.68
2023-02-05T06:01:30.998Z,14.00
2023-02-05T06:04:18.875Z,11.77
2023-02-05T06:07:06.920Z,12.05
2023-02-05T06:09:54.981Z,11.65
2023-02-05T06:12:45.985Z,11.00
2023-02-05T06:15:34.624Z,11.35
2023-02-05T06:18:23.933Z,12.40
2023-02-05T06:21:11.838Z,12.25
2023-02-05T06:23:59.983Z,13.15
2023-02-05T06:26:47.911Z,13.52
2023-02-05T06:29:36.264Z,14.52
2023-02-05T06:32:26.515Z,14.15
2023-02-05T06:35:15.242Z,14.50
2023-02-05T06:38:27.464Z,15.45
2023-02-05T06:41:42.848Z,15.27
2023-02-05T06:45:07.652Z,15.50
2023-02-05T06:51:03.467Z,14.50
2023-02-05T06:54:02.724Z,14.15
2023-02-05T06:57:17.058Z,15.30
2023-02-05T07:08:07.230Z,15.13
2023-02-05T07:11:24.015Z,18.00
2023-02-05T07:14:16.797Z,18.55
2023-02-05T07:17:18.036Z,18.40
2023-02-05T07:23:53.219Z,18.45
2023-02-05T07:27:52.778Z,19.45
2023-02-05T07:37:15.542Z,24.52
2023-02-05T07:40:03.934Z,24.65
2023-02-05T07:42:54.282Z,25.13
2023-02-05T07:45:41.918Z,24.08
2023-02-05T07:48:32.426Z,26.88
2023-02-05T07:51:23.660Z,22.88
2023-02-05T07:54:14.817Z,25.13
2023-02-05T07:57:08.119Z,24.05
2023-02-05T07:59:56.229Z,25.27
2023-02-05T08:02:44.382Z,21.30
2023-02-05T08:05:32.868Z,23.52
2023-02-05T08:08:21.048Z,28.45
2023-02-05T08:11:15.196Z,26.60
2023-02-05T08:14:03.027Z,28.17
2023-02-05T08:16:51.314Z,28.10
2023-02-05T08:19:42.610Z,24.33
2023-02-05T08:22:30.336Z,26.17
2023-02-05T08:25:21.812Z,27.00
2023-02-05T08:28:13.932Z,29.10
2023-02-05T08:31:15.291Z,27.52
2023-02-05T08:34:08.309Z,30.73
2023-02-05T08:37:07.187Z,30.27
2023-02-05T08:40:00.408Z,28.05
2023-02-05T08:45:57.008Z,28.55
2023-02-05T08:51:58.960Z,29.98
2023-02-05T08:54:49.670Z,30.90
2023-02-05T08:57:37.813Z,34.28
2023-02-05T09:00:31.882Z,32.38
2023-02-05T09:03:28.466Z,33.08
2023-02-05T09:06:17.414Z,32.35
2023-02-05T09:09:08.436Z,33.85
2023-02-05T09:11:59.214Z,31.45
2023-02-05T09:14:47.171Z,30.52
2023-02-05T09:17:38.107Z,29.63
2023-02-05T09:20:26.056Z,29.05
2023-02-05T09:23:18.007Z,30.23
2023-02-05T09:25:48.474Z,30.52
2023-02-05T09:28:56.886Z,31.75
2023-02-05T09:32:22.753Z,32.72
2023-02-05T09:34:57.801Z,35.05
2023-02-05T09:45:30.430Z,26.00
2023-02-05T09:48:38.818Z,28.83
2023-02-05T09:51:50.112Z,28.33
2023-02-05T09:55:00.774Z,26.67
2023-02-05T09:57:58.343Z,27.85
2023-02-05T10:01:02.019Z,29.55
2023-02-05T10:04:18.946Z,27.42
2023-02-05T10:07:59.790Z,28.73
2023-02-05T10:10:54.185Z,31.35
2023-02-05T10:15:07.904Z,30.15
2023-02-05T10:17:45.452Z,34.28
2023-02-05T10:20:56.719Z,29.40
2023-02-05T10:24:10.215Z,34.75
2023-02-05T10:39:05.001Z,37.30
2023-02-05T10:56:39.803Z,41.25
2023-02-05T10:59:47.502Z,42.03
2023-02-05T11:02:48.380Z,41.95
2023-02-05T11:05:44.129Z,37.92
2023-02-05T11:08:50.017Z,37.55
2023-02-05T11:11:41.960Z,39.72
2023-02-05T11:14:48.409Z,36.80
2023-02-05T11:17:43.354Z,38.42
2023-02-05T11:20:49.985Z,36.55
2023-02-05T11:24:03.709Z,33.97
2023-02-05T11:27:15.291Z,29.53
2023-02-05T11:30:52.316Z,34.17
2023-02-05T11:33:41.801Z,27.05
2023-02-05T11:37:37.839Z,33.20
2023-02-05T11:40:58.520Z,30.35
2023-02-05T11:48:20.550Z,33.50
2023-02-05T11:51:39.882Z,26.88
2023-02-05T11:55:15.528Z,28.75
2023-02-05T11:58:51.459Z,28.73
2023-02-05T12:05:26.648Z,33.13
2023-02-05T12:09:14.433Z,30.65
2023-02-05T12:12:26.581Z,30.77
2023-02-05T12:15:50.723Z,30.52
2023-02-05T12:23:33.339Z,24.85
2023-02-05T12:34:34.100Z,28.35
2023-02-05T12:38:12.403Z,26.63
2023-02-05T12:49:36.856Z,26.13
2023-02-05T12:52:59.132Z,23.92
2023-02-05T13:04:03.554Z,20.17
2023-02-05T13:07:18.896Z,22.65
2023-02-05T14:04:38.826Z,24.27
2023-02-05T14:07:51.485Z,24.75
2023-02-05T14:10:49.526Z,26.85
2023-02-05T14:13:45.052Z,26.80
2023-02-05T14:16:36.168Z,27.00
2023-02-05T14:19:28.868Z,27.20
2023-02-05T14:22:43.917Z,27.00
2023-02-05T14:25:40.090Z,25.65
2023-02-05T14:28:31.556Z,23.35
2023-02-05T14:31:54.722Z,20.63
2023-02-05T14:34:46.514Z,20.85
2023-02-05T14:37:39.997Z,22.08
2023-02-05T14:40:32.621Z,23.98
2023-02-05T14:43:33.337Z,26.60
2023-02-05T14:46:40.727Z,27.35
2023-02-05T14:49:33.993Z,23.83
2023-02-05T14:52:32.500Z,27.20
2023-02-05T14:55:25.803Z,27.25
2023-02-05T14:58:25.976Z,26.05
2023-02-05T15:01:36.482Z,26.45
2023-02-05T15:04:47.023Z,25.60
2023-02-05T15:07:38.158Z,25.50
2023-02-05T15:10:33.041Z,25.30
2023-02-05T15:13:26.757Z,24.85
2023-02-05T15:16:15.199Z,25.35
2023-02-05T15:19:06.778Z,23.15
2023-02-05T15:21:55.193Z,23.60
2023-02-05T15:24:46.229Z,24.33
2023-02-05T15:27:55.372Z,24.60
2023-02-05T15:31:08.387Z,24.67
2023-02-05T15:34:29.726Z,25.90
2023-02-05T15:37:43.678Z,25.25
2023-02-05T15:40:39.009Z,25.42
2023-02-05T15:43:35.798Z,24.48
2023-02-05T15:46:24.063Z,23.48
2023-02-05T15:49:15.140Z,24.38
2023-02-05T15:52:03.838Z,24.42
2023-02-05T15:55:03.766Z,24.73
2023-02-05T15:57:52.080Z,24.08
2023-02-05T16:00:45.371Z,24.83
2023-02-05T16:03:37.052Z,24.10
2023-02-05T16:06:29.132Z,25.10
2023-02-05T16:09:24.277Z,24.52
2023-02-05T16:12:13.916Z,24.88
2023-02-05T16:15:14.094Z,23.38
2023-02-05T16:18:07.361Z,25.30
2023-02-05T16:21:05.994Z,24.95
2023-02-05T16:24:00.351Z,24.85
2023-02-05T16:27:01.596Z,25.65
2023-02-05T16:29:57.412Z,25.45
2023-02-05T16:32:45.778Z,25.60
2023-02-05T16:35:48.943Z,26.92
2023-02-05T16:38:45.259Z,25.60
2023-02-05T16:41:47.404Z,25.60
2023-02-05T16:44:55.826Z,25.15
2023-02-05T16:48:38.116Z,25.50
2023-02-05T16:51:33.819Z,23.48
2023-02-05T16:54:24.793Z,22.58
2023-02-05T16:57:26.360Z,23.42
2023-02-05T17:00:27.910Z,26.13
2023-02-05T17:03:27.421Z,24.40
2023-02-05T17:06:29.844Z,26.33
2023-02-05T17:09:47.189Z,25.67
2023-02-05T17:12:47.064Z,25.83
2023-02-05T17:15:40.406Z,25.75
2023-02-05T17:18:34.774Z,25.60
2023-02-05T17:21:30.522Z,26.60
2023-02-05T17:24:21.896Z,25.55
2023-02-05T17:27:17.608Z,26.55
2023-02-05T17:30:14.562Z,24.55
2023-02-05T17:33:06.528Z,27.20
2023-02-05T17:35:55.013Z,25.05
2023-02-05T17:38:48.672Z,24.33
2023-02-05T17:41:56.788Z,25.25
2023-02-05T17:44:45.099Z,24.77
2023-02-05T17:47:33.048Z,24.38
2023-02-05T17:50:21.289Z,24.25
2023-02-05T17:53:14.107Z,24.40
2023-02-05T17:56:02.075Z,24.13
2023-02-05T17:58:53.693Z,22.58
2023-02-05T18:01:41.545Z,23.63
2023-02-05T18:04:29.468Z,23.73
2023-02-05T18:07:29.747Z,24.17
2023-02-05T18:10:25.336Z,24.77
2023-02-05T18:13:16.849Z,22.85
2023-02-05T18:16:05.239Z,23.55
2023-02-05T18:18:58.870Z,25.65
2023-02-05T18:22:00.599Z,24.33
2023-02-05T18:24:51.581Z,22.65
2023-02-05T18:27:48.465Z,26.00
2023-02-05T18:30:48.091Z,24.90
2023-02-05T18:38:08.926Z,25.63
2023-02-05T18:41:24.769Z,26.98
2023-02-05T18:44:18.478Z,26.83
2023-02-05T18:47:07.559Z,26.48
2023-02-05T18:56:05.804Z,25.08
2023-02-05T18:59:01.413Z,24.75
2023-02-05T19:01:49.246Z,27.27
2023-02-05T19:04:39.486Z,30.70
2023-02-05T19:07:36.634Z,29.73
2023-02-05T19:10:29.769Z,32.42
2023-02-05T19:13:18.100Z,28.90
2023-02-05T19:16:09.352Z,29.08
2023-02-05T19:18:57.849Z,26.27
2023-02-05T19:21:50.390Z,43.60
2023-02-05T19:24:40.618Z,31.70
2023-02-05T19:27:32.829Z,31.33
2023-02-05T19:30:27.648Z,29.90
2023-02-05T19:33:15.658Z,28.50
2023-02-05T19:36:10.306Z,29.73
2023-02-05T19:42:02.788Z,31.15
2023-02-05T19:44:50.490Z,29.45
2023-02-05T19:47:48.726Z,28.85
2023-02-05T19:50:47.692Z,26.40
2023-02-05T19:53:45.436Z,27.23
2023-02-05T19:56:37.887Z,26.60
2023-02-05T19:59:26.222Z,25.80
2023-02-05T20:02:19.591Z,23.77
2023-02-05T20:05:10.055Z,24.30
2023-02-05T20:07:57.808Z,23.63
2023-02-05T20:10:46.217Z,22.58
2023-02-05T20:13:41.976Z,24.92
2023-02-05T20:16:29.912Z,22.52
2023-02-05T20:19:18.059Z,23.27
2023-02-05T20:22:09.330Z,23.45
2023-02-05T20:25:28.052Z,21.45
2023-02-05T20:28:18.378Z,18.98
2023-02-05T20:31:37.185Z,20.85
2023-02-05T20:34:31.215Z,21.00
2023-02-05T20:37:19.899Z,20.80
2023-02-05T20:40:11.195Z,22.83
2023-02-05T20:43:01.389Z,23.38
2023-02-05T20:45:49.451Z,23.02
2023-02-05T20:48:43.274Z,22.67
2023-02-05T20:51:31.424Z,23.52
2023-02-05T20:54:26.061Z,23.15
2023-02-05T20:57:25.867Z,21.65
2023-02-05T21:00:24.676Z,22.88
2023-02-05T21:03:32.150Z,22.73
2023-02-05T21:06:36.822Z,24.65
2023-02-05T21:09:36.828Z,24.05
2023-02-05T21:12:32.635Z,25.33
2023-02-05T21:15:25.943Z,23.35
2023-02-05T21:18:13.765Z,24.10
2023-02-05T21:21:15.680Z,24.77
2023-02-05T21:24:07.465Z,23.33
2023-02-05T21:26:58.449Z,25.77
2023-02-05T21:29:46.436Z,25.52
2023-02-05T21:32:34.847Z,23.25
2023-02-05T21:35:23.292Z,26.23
2023-02-05T21:38:11.027Z,26.45
2023-02-05T21:41:06.464Z,26.85
2023-02-05T21:43:56.521Z,27.67
2023-02-05T21:46:44.578Z,26.40
2023-02-05T21:49:32.483Z,25.38
2023-02-05T21:52:23.734Z,26.05
2023-02-05T21:55:11.733Z,26.30
2023-02-05T21:57:59.724Z,26.25
2023-02-05T22:00:47.625Z,26.48
2023-02-05T22:03:35.428Z,25.65
2023-02-05T22:06:25.317Z,25.30
2023-02-05T22:09:15.885Z,26.33
2023-02-05T22:12:06.998Z,26.92
2023-02-05T22:14:54.674Z,27.90
2023-02-05T22:20:56.003Z,26.80
2023-02-05T22:23:46.101Z,28.35
2023-02-05T22:27:19.035Z,29.05
2023-02-05T22:33:08.771Z,28.40
2023-02-05T22:35:57.215Z,29.45
2023-02-05T22:38:48.798Z,28.15
2023-02-05T22:41:39.375Z,28.65
2023-02-05T22:44:27.247Z,28.55
2023-02-05T22:47:14.896Z,29.50
2023-02-05T22:50:06.336Z,28.65
2023-02-05T22:52:54.130Z,28.50
2023-02-05T22:55:42.645Z,29.55
2023-02-05T22:58:30.985Z,28.23
2023-02-05T23:01:21.839Z,29.38
2023-02-05T23:04:10.387Z,27.33
2023-02-05T23:06:58.396Z,26.10
2023-02-05T23:09:46.128Z,28.33
2023-02-05T23:12:36.393Z,29.15
2023-02-05T23:15:24.224Z,27.67
2023-02-05T23:18:12.041Z,28.60
2023-02-05T23:20:59.843Z,27.17
2023-02-05T23:23:49.615Z,28.27
2023-02-05T23:26:42.350Z,30.83
2023-02-05T23:29:33.449Z,26.88
2023-02-05T23:32:21.455Z,27.63
2023-02-05T23:35:09.454Z,25.52
2023-02-05T23:37:57.282Z,27.35
2023-02-05T23:40:45.305Z,26.52
2023-02-05T23:43:35.185Z,24.80
2023-02-05T23:46:23.105Z,25.40
2023-02-05T23:49:15.034Z,23.85
2023-02-05T23:52:02.791Z,24.95
2023-02-05T23:54:50.882Z,22.92
2023-02-05T23:57:38.789Z,24.20
